createdAt,value
2024-05-09T00:00:43.752Z,55.74
2024-05-09T00:03:31.898Z,55.63
2024-05-09T00:05:59.773Z,55.72
2024-05-09T00:08:27.632Z,55.84
2024-05-09T00:10:55.290Z,55.96
2024-05-09T00:13:23.002Z,56.07
2024-05-09T00:15:50.650Z,56.27
2024-05-09T00:18:18.481Z,56.28
2024-05-09T00:20:46.437Z,56.17
2024-05-09T00:23:14.280Z,56.43
2024-05-09T00:25:45.518Z,56.75
2024-05-09T00:28:13.601Z,56.71
2024-05-09T00:30:41.662Z,56.79
2024-05-09T00:33:10.858Z,56.79
2024-05-09T00:35:39.789Z,57.07
2024-05-09T00:38:08.112Z,57.17
2024-05-09T00:40:43.350Z,57.16
2024-05-09T00:43:12.944Z,57.48
2024-05-09T00:45:42.031Z,57.51
2024-05-09T00:48:14.342Z,57.69
2024-05-09T00:50:46.208Z,57.71
2024-05-09T00:53:17.283Z,57.76
2024-05-09T00:55:47.376Z,57.53
2024-05-09T00:58:18.386Z,57.86
2024-05-09T01:00:46.562Z,57.84
2024-05-09T01:03:14.693Z,57.99
2024-05-09T01:05:44.359Z,58.04
2024-05-09T01:08:13.368Z,58.31
2024-05-09T01:10:44.828Z,58.36
2024-05-09T01:13:14.013Z,58.24
2024-05-09T01:15:42.257Z,58.29
2024-05-09T01:18:12.376Z,58.32
2024-05-09T01:20:44.170Z,58.34
2024-05-09T01:23:15.218Z,58.41
2024-05-09T01:25:46.206Z,58.44
2024-05-09T01:28:15.088Z,58.64
2024-05-09T01:30:43.515Z,58.70
2024-05-09T01:33:12.507Z,58.87
2024-05-09T01:35:42.519Z,58.85
2024-05-09T01:38:17.079Z,58.94
2024-05-09T01:40:45.838Z,59.04
2024-05-09T01:43:13.681Z,59.17
2024-05-09T01:45:41.743Z,59.08
2024-05-09T01:48:10.780Z,59.42
2024-05-09T01:50:42.025Z,59.41
2024-05-09T01:53:14.347Z,59.26
2024-05-09T01:55:43.902Z,59.35
2024-05-09T01:58:11.763Z,59.17
2024-05-09T02:00:42.282Z,59.21
2024-05-09T02:03:14.962Z,59.40
2024-05-09T02:05:47.453Z,59.12
2024-05-09T02:08:18.926Z,58.88
2024-05-09T02:10:49.025Z,59.03
2024-05-09T02:13:17.172Z,59.72
2024-05-09T02:15:45.173Z,59.87
2024-05-09T02:18:13.524Z,59.83
2024-05-09T02:20:42.918Z,60.02
2024-05-09T02:23:11.475Z,60.07
2024-05-09T02:25:40.077Z,60.08
2024-05-09T02:28:07.885Z,59.91
2024-05-09T02:30:40.040Z,59.96
2024-05-09T02:33:12.292Z,59.97
2024-05-09T02:35:42.999Z,59.86
2024-05-09T02:38:12.386Z,59.43
2024-05-09T02:40:40.801Z,59.64
2024-05-09T02:43:12.199Z,60.04
2024-05-09T02:45:41.193Z,60.01
2024-05-09T02:48:13.395Z,59.96
2024-05-09T02:50:44.072Z,60.26
2024-05-09T02:53:12.768Z,60.14
2024-05-09T02:55:42.301Z,60.20
2024-05-09T02:58:11.104Z,60.22
2024-05-09T03:00:41.807Z,60.31
2024-05-09T03:03:13.628Z,60.01
2024-05-09T03:05:44.648Z,59.94
2024-05-09T03:08:13.026Z,59.97
2024-05-09T03:10:41.074Z,59.88
2024-05-09T03:13:12.164Z,59.98
2024-05-09T03:15:40.700Z,59.83
2024-05-09T03:18:08.725Z,59.91
2024-05-09T03:20:37.698Z,59.95
2024-05-09T03:23:07.863Z,59.74
2024-05-09T03:25:36.440Z,59.88
2024-05-09T03:28:04.366Z,59.54
2024-05-09T03:30:39.924Z,59.30
2024-05-09T03:33:12.230Z,58.86
2024-05-09T03:35:41.089Z,59.03
2024-05-09T03:38:09.103Z,58.95
2024-05-09T03:40:44.044Z,59.00
2024-05-09T03:43:13.159Z,59.59
2024-05-09T03:45:42.060Z,59.61
2024-05-09T03:48:10.109Z,59.76
2024-05-09T03:50:38.290Z,59.45
2024-05-09T03:53:09.723Z,59.67
2024-05-09T03:55:37.392Z,59.87
2024-05-09T03:58:07.669Z,59.74
2024-05-09T04:00:38.998Z,59.88
2024-05-09T04:03:10.613Z,59.90
2024-05-09T04:05:42.349Z,59.40
2024-05-09T04:08:11.496Z,59.12
2024-05-09T04:10:39.433Z,59.12
2024-05-09T04:13:07.080Z,59.28
2024-05-09T04:15:34.720Z,59.40
2024-05-09T04:18:02.869Z,59.24
2024-05-09T04:20:37.998Z,59.64
2024-05-09T04:23:13.559Z,59.92
2024-05-09T04:25:44.223Z,59.96
2024-05-09T04:28:12.486Z,59.94
2024-05-09T04:30:41.630Z,59.41
2024-05-09T04:33:12.566Z,59.32
2024-05-09T04:35:43.435Z,59.36
2024-05-09T04:38:12.643Z,59.69
2024-05-09T04:40:40.415Z,60.00
2024-05-09T04:43:15.128Z,60.04
2024-05-09T04:45:42.997Z,59.84
2024-05-09T04:48:11.137Z,59.40
2024-05-09T04:50:39.869Z,59.45
2024-05-09T04:53:10.411Z,59.03
2024-05-09T04:55:40.466Z,58.84
2024-05-09T04:58:09.487Z,59.13
2024-05-09T05:00:39.886Z,58.40
2024-05-09T05:03:13.196Z,57.92
2024-05-09T05:05:45.220Z,58.04
2024-05-09T05:08:18.940Z,57.89
2024-05-09T05:10:48.570Z,57.85
2024-05-09T05:13:20.063Z,57.75
2024-05-09T05:15:50.470Z,57.70
2024-05-09T05:18:18.963Z,57.31
2024-05-09T05:20:47.040Z,57.56
2024-05-09T05:23:16.662Z,57.03
2024-05-09T05:25:48.186Z,56.82
2024-05-09T05:28:16.919Z,56.45
2024-05-09T05:30:45.576Z,56.64
2024-05-09T05:33:14.926Z,56.50
2024-05-09T05:35:43.098Z,56.57
2024-05-09T05:38:11.442Z,56.57
2024-05-09T05:40:40.517Z,56.35
2024-05-09T05:43:10.466Z,56.36
2024-05-09T05:45:39.200Z,56.21
2024-05-09T05:48:07.949Z,55.99
2024-05-09T05:50:38.080Z,56.27
2024-05-09T05:53:08.208Z,56.15
2024-05-09T05:55:37.582Z,56.14
2024-05-09T05:58:05.326Z,56.05
2024-05-09T06:00:38.929Z,56.09
2024-05-09T06:03:09.264Z,56.03
2024-05-09T06:05:43.451Z,55.95
2024-05-09T06:08:12.124Z,55.91
2024-05-09T06:10:41.373Z,55.82
2024-05-09T06:13:13.389Z,55.88
2024-05-09T06:15:42.602Z,55.92
2024-05-09T06:18:12.205Z,56.02
2024-05-09T06:20:41.928Z,55.95
2024-05-09T06:23:10.933Z,56.08
2024-05-09T06:25:38.762Z,56.05
2024-05-09T06:28:06.682Z,55.65
2024-05-09T06:30:40.078Z,55.57
2024-05-09T06:33:12.889Z,55.87
2024-05-09T06:35:43.565Z,55.88
2024-05-09T06:38:11.949Z,55.93
2024-05-09T06:40:42.596Z,55.95
2024-05-09T06:43:17.691Z,56.06
2024-05-09T06:45:48.678Z,56.01
2024-05-09T06:48:20.885Z,56.12
2024-05-09T06:50:49.804Z,55.80
2024-05-09T06:53:21.741Z,55.59
2024-05-09T06:55:49.963Z,55.22
2024-05-09T06:58:17.701Z,55.51
2024-05-09T07:00:45.443Z,55.42
2024-05-09T07:03:16.990Z,55.81
2024-05-09T07:05:48.348Z,55.98
2024-05-09T07:08:18.012Z,55.49
2024-05-09T07:10:46.117Z,55.36
2024-05-09T07:13:15.078Z,55.19
2024-05-09T07:15:43.599Z,55.14
2024-05-09T07:18:13.150Z,55.54
2024-05-09T07:20:41.610Z,55.51
2024-05-09T07:23:10.602Z,55.16
2024-05-09T07:25:40.279Z,55.02
2024-05-09T07:28:14.185Z,55.06
2024-05-09T07:30:42.507Z,54.68
2024-05-09T07:33:19.802Z,54.61
2024-05-09T07:35:48.540Z,54.54
2024-05-09T07:38:16.309Z,54.85
2024-05-09T07:40:44.098Z,54.53
2024-05-09T07:43:12.974Z,54.95
2024-05-09T07:45:50.453Z,54.87
2024-05-09T07:52:37.264Z,54.56
2024-05-09T07:53:46.561Z,54.88
2024-05-09T07:56:18.594Z,54.67
2024-05-09T07:58:47.307Z,54.43
2024-05-09T08:01:15.428Z,53.96
2024-05-09T08:03:43.391Z,54.07
2024-05-09T08:06:11.199Z,54.17
2024-05-09T08:08:38.897Z,54.01
2024-05-09T08:11:06.778Z,53.79
2024-05-09T08:13:34.723Z,53.67
2024-05-09T08:16:02.529Z,53.74
2024-05-09T08:18:30.519Z,53.15
2024-05-09T08:20:58.797Z,53.28
2024-05-09T08:23:26.445Z,53.12
2024-05-09T08:25:54.115Z,53.43
2024-05-09T08:28:21.811Z,53.35
2024-05-09T08:30:49.851Z,52.68
2024-05-09T08:33:17.857Z,52.17
2024-05-09T08:35:45.724Z,52.18
2024-05-09T08:38:13.449Z,52.64
2024-05-09T08:40:41.700Z,52.68
2024-05-09T08:43:11.875Z,51.79
2024-05-09T08:45:45.123Z,52.13
2024-05-09T08:48:15.398Z,51.40
2024-05-09T08:50:45.130Z,50.92
2024-05-09T08:53:16.471Z,50.25
2024-05-09T08:55:46.243Z,49.50
2024-05-09T08:58:17.933Z,49.80
2024-05-09T09:00:46.633Z,49.60
2024-05-09T09:03:17.861Z,49.51
2024-05-09T09:05:53.382Z,49.34
2024-05-09T09:08:21.851Z,48.47
2024-05-09T09:10:53.703Z,47.61
2024-05-09T09:13:21.401Z,47.88
2024-05-09T09:15:50.282Z,47.57
2024-05-09T09:18:18.832Z,47.35
2024-05-09T09:20:46.950Z,47.20
2024-05-09T09:23:14.857Z,46.80
2024-05-09T09:25:42.618Z,47.10
2024-05-09T09:28:10.779Z,47.03
2024-05-09T09:30:40.384Z,46.60
2024-05-09T09:33:09.389Z,45.90
2024-05-09T09:35:39.686Z,45.13
2024-05-09T09:38:09.910Z,44.99
2024-05-09T09:40:46.673Z,44.37
2024-05-09T09:43:22.493Z,44.93
2024-05-09T09:45:52.394Z,44.68
2024-05-09T09:48:22.171Z,44.47
2024-05-09T09:50:55.417Z,44.38
2024-05-09T09:53:23.604Z,43.89
2024-05-09T09:55:52.870Z,44.00
2024-05-09T09:58:21.409Z,43.83
2024-05-09T10:00:49.384Z,43.73
2024-05-09T10:03:17.261Z,42.81
2024-05-09T10:05:47.349Z,42.08
2024-05-09T10:08:17.658Z,42.55
2024-05-09T10:10:50.081Z,42.69
2024-05-09T10:13:19.942Z,40.78
2024-05-09T10:15:52.416Z,39.72
2024-05-09T10:18:28.210Z,39.88
2024-05-09T10:20:59.473Z,40.06
2024-05-09T10:23:32.892Z,40.88
2024-05-09T10:26:02.996Z,40.62
2024-05-09T10:28:32.940Z,40.67
2024-05-09T10:31:11.304Z,40.45
2024-05-09T10:33:45.256Z,39.65
2024-05-09T10:36:23.710Z,39.92
2024-05-09T10:38:53.486Z,39.38
2024-05-09T10:41:22.986Z,38.71
2024-05-09T10:43:51.615Z,38.71
2024-05-09T10:46:20.163Z,38.48
2024-05-09T10:48:48.732Z,38.22
2024-05-09T10:51:19.291Z,37.97
2024-05-09T10:53:48.235Z,37.63
2024-05-09T10:56:16.588Z,37.10
2024-05-09T10:58:44.657Z,37.18
2024-05-09T11:01:13.283Z,37.76
2024-05-09T11:03:41.711Z,38.02
2024-05-09T11:06:11.184Z,38.09
2024-05-09T11:08:39.311Z,37.78
2024-05-09T11:11:08.614Z,36.69
2024-05-09T11:13:38.313Z,35.85
2024-05-09T11:16:17.412Z,36.12
2024-05-09T11:18:57.053Z,35.51
2024-05-09T11:21:25.106Z,35.01
2024-05-09T11:23:53.305Z,35.49
2024-05-09T11:26:25.213Z,35.25
2024-05-09T11:28:53.146Z,34.73
2024-05-09T11:31:21.043Z,34.85
2024-05-09T11:33:49.200Z,34.89
2024-05-09T11:36:17.225Z,35.21
2024-05-09T11:38:44.959Z,34.89
2024-05-09T11:41:17.532Z,34.81
2024-05-09T11:43:45.525Z,34.37
2024-05-09T11:46:13.666Z,34.42
2024-05-09T11:48:41.785Z,34.00
2024-05-09T11:51:09.688Z,34.23
2024-05-09T11:53:37.435Z,34.04
2024-05-09T11:56:05.638Z,33.51
2024-05-09T11:58:34.820Z,33.08
2024-05-09T12:01:02.862Z,32.40
2024-05-09T12:03:30.989Z,32.16
2024-05-09T12:05:59.181Z,32.76
2024-05-09T12:08:27.247Z,32.83
2024-05-09T12:10:55.154Z,32.80
2024-05-09T12:13:23.228Z,33.17
2024-05-09T12:15:51.038Z,33.06
2024-05-09T12:18:18.835Z,32.29
2024-05-09T12:20:46.679Z,32.85
2024-05-09T12:23:14.581Z,32.87
2024-05-09T12:25:42.262Z,32.71
2024-05-09T12:28:10.008Z,31.52
2024-05-09T12:30:40.106Z,31.08
2024-05-09T12:33:13.079Z,31.13
2024-05-09T12:35:44.486Z,30.34
2024-05-09T12:38:15.302Z,30.59
2024-05-09T12:40:43.600Z,30.91
2024-05-09T12:43:11.947Z,31.56
2024-05-09T12:45:40.490Z,30.84
2024-05-09T12:48:11.742Z,30.82
2024-05-09T12:50:41.233Z,30.28
2024-05-09T12:53:09.345Z,30.31
2024-05-09T12:55:44.803Z,31.00
2024-05-09T12:58:23.891Z,30.67
2024-05-09T13:00:52.471Z,30.55
2024-05-09T13:03:21.273Z,29.56
2024-05-09T13:05:50.658Z,29.29
2024-05-09T13:08:19.599Z,29.32
2024-05-09T13:10:48.116Z,29.75
2024-05-09T13:13:16.149Z,30.12
2024-05-09T13:15:44.029Z,30.15
2024-05-09T13:18:11.823Z,30.46
2024-05-09T13:20:39.523Z,30.66
2024-05-09T13:23:08.474Z,30.45
2024-05-09T13:25:38.051Z,30.35
2024-05-09T13:28:07.682Z,30.45
2024-05-09T13:30:40.426Z,30.15
2024-05-09T13:33:11.632Z,29.85
2024-05-09T13:35:47.359Z,29.51
2024-05-09T13:38:19.819Z,29.41
2024-05-09T13:40:48.433Z,29.21
2024-05-09T13:43:17.638Z,29.31
2024-05-09T13:45:46.014Z,29.37
2024-05-09T13:48:14.185Z,29.85
2024-05-09T13:50:42.219Z,29.83
2024-05-09T13:53:09.905Z,29.44
2024-05-09T13:55:38.696Z,29.60
2024-05-09T13:58:08.326Z,30.01
2024-05-09T14:00:44.974Z,30.51
2024-05-09T14:03:19.691Z,30.15
2024-05-09T14:05:50.835Z,30.09
2024-05-09T14:08:21.434Z,30.57
2024-05-09T14:10:49.601Z,30.60
2024-05-09T14:13:17.993Z,30.68
2024-05-09T14:15:46.667Z,30.88
2024-05-09T14:18:14.986Z,30.97
2024-05-09T14:20:43.171Z,31.25
2024-05-09T14:23:11.323Z,31.45
2024-05-09T14:25:42.692Z,31.01
2024-05-09T14:28:13.051Z,31.42
2024-05-09T14:30:42.653Z,31.40
2024-05-09T14:33:11.578Z,31.60
2024-05-09T14:35:39.566Z,31.64
2024-05-09T14:38:08.819Z,31.54
2024-05-09T14:40:42.370Z,31.72
2024-05-09T14:43:13.829Z,31.54
2024-05-09T14:45:43.474Z,31.61
2024-05-09T14:48:14.156Z,31.44
2024-05-09T14:50:42.229Z,31.74
2024-05-09T14:53:11.209Z,32.43
2024-05-09T14:55:41.349Z,32.41
2024-05-09T14:58:11.506Z,32.01
2024-05-09T15:00:45.922Z,32.14
2024-05-09T15:03:18.652Z,32.45
2024-05-09T15:05:47.751Z,32.83
2024-05-09T15:08:17.274Z,32.70
2024-05-09T15:10:45.182Z,32.17
2024-05-09T15:13:15.548Z,32.36
2024-05-09T15:15:44.584Z,32.58
2024-05-09T15:18:14.065Z,32.62
2024-05-09T15:20:44.560Z,32.51
2024-05-09T15:23:12.496Z,32.55
2024-05-09T15:25:40.424Z,31.94
2024-05-09T15:28:08.770Z,32.16
2024-05-09T15:30:37.238Z,33.14
2024-05-09T15:33:06.969Z,33.09
2024-05-09T15:35:35.951Z,33.08
2024-05-09T15:38:04.571Z,33.11
2024-05-09T15:40:39.388Z,32.82
2024-05-09T15:43:10.603Z,32.68
2024-05-09T15:45:40.864Z,33.39
2024-05-09T15:48:10.326Z,33.10
2024-05-09T15:50:41.213Z,32.96
2024-05-09T15:53:12.541Z,32.88
2024-05-09T15:55:42.172Z,33.17
2024-05-09T15:58:10.712Z,32.89
2024-05-09T16:00:42.114Z,33.14
2024-05-09T16:03:13.116Z,33.53
2024-05-09T16:05:46.578Z,33.64
2024-05-09T16:08:15.585Z,34.16
2024-05-09T16:10:45.974Z,33.59
2024-05-09T16:13:15.611Z,33.30
2024-05-09T16:15:43.993Z,33.72
2024-05-09T16:18:12.817Z,34.43
2024-05-09T16:20:42.514Z,34.80
2024-05-09T16:23:12.558Z,35.32
2024-05-09T16:25:45.147Z,34.71
2024-05-09T16:28:13.454Z,34.50
2024-05-09T16:30:41.656Z,34.41
2024-05-09T16:33:11.793Z,34.04
2024-05-09T16:35:40.535Z,34.34
2024-05-09T16:38:08.811Z,34.65
2024-05-09T16:40:40.056Z,35.36
2024-05-09T16:43:11.757Z,35.25
2024-05-09T16:45:41.274Z,35.03
2024-05-09T16:48:09.299Z,35.54
2024-05-09T16:50:37.928Z,35.72
2024-05-09T16:53:06.829Z,36.06
2024-05-09T16:55:36.004Z,35.50
2024-05-09T16:58:06.387Z,35.22
2024-05-09T17:00:40.811Z,35.44
2024-05-09T17:03:15.577Z,36.13
2024-05-09T17:05:46.771Z,36.22
2024-05-09T17:08:17.781Z,36.20
2024-05-09T17:10:48.905Z,36.70
2024-05-09T17:13:18.144Z,37.09
2024-05-09T17:15:46.855Z,37.49
2024-05-09T17:18:15.079Z,37.50
2024-05-09T17:20:42.892Z,37.65
2024-05-09T17:23:13.919Z,37.75
2024-05-09T17:25:42.860Z,38.26
2024-05-09T17:28:11.239Z,38.53
2024-05-09T17:30:42.492Z,38.68
2024-05-09T17:33:12.399Z,38.79
2024-05-09T17:35:41.121Z,39.01
2024-05-09T17:38:09.279Z,39.28
2024-05-09T17:40:38.462Z,39.78
2024-05-09T17:43:09.458Z,39.58
2024-05-09T17:45:40.087Z,39.92
2024-05-09T17:48:10.111Z,40.15
2024-05-09T17:50:39.117Z,40.17
2024-05-09T17:53:10.954Z,40.24
2024-05-09T17:55:39.901Z,40.40
2024-05-09T17:58:08.424Z,40.53
2024-05-09T18:00:39.972Z,40.73
2024-05-09T18:03:14.432Z,41.06
2024-05-09T18:05:44.786Z,41.36
2024-05-09T18:08:13.718Z,41.72
2024-05-09T18:10:42.237Z,42.08
2024-05-09T18:13:13.700Z,42.37
2024-05-09T18:15:41.999Z,42.76
2024-05-09T18:18:10.490Z,43.03
2024-05-09T18:20:43.817Z,43.09
2024-05-09T18:23:16.583Z,43.12
2024-05-09T18:25:47.122Z,43.51
2024-05-09T18:28:17.143Z,43.84
2024-05-09T18:30:45.509Z,44.02
2024-05-09T18:33:13.934Z,43.82
2024-05-09T18:35:44.994Z,44.09
2024-05-09T18:38:12.939Z,44.27
2024-05-09T18:40:42.828Z,44.56
2024-05-09T18:43:11.926Z,44.92
2024-05-09T18:45:39.989Z,45.13
2024-05-09T18:48:09.662Z,44.88
2024-05-09T18:50:40.492Z,45.00
2024-05-09T18:53:11.808Z,44.98
2024-05-09T18:55:42.044Z,44.97
2024-05-09T18:58:09.894Z,44.94
2024-05-09T19:00:40.343Z,45.31
2024-05-09T19:03:12.915Z,45.41
2024-05-09T19:05:44.695Z,45.58
2024-05-09T19:08:14.922Z,45.84
2024-05-09T19:10:46.050Z,46.23
2024-05-09T19:13:14.898Z,46.41
2024-05-09T19:15:44.117Z,46.61
2024-05-09T19:18:13.700Z,46.81
2024-05-09T19:20:42.383Z,46.75
2024-05-09T19:23:11.623Z,46.95
2024-05-09T19:25:39.704Z,47.04
2024-05-09T19:28:07.456Z,47.19
2024-05-09T19:30:40.243Z,47.24
2024-05-09T19:33:13.024Z,47.62
2024-05-09T19:35:42.331Z,47.66
2024-05-09T19:38:10.854Z,47.81
2024-05-09T19:40:38.710Z,47.90
2024-05-09T19:43:06.975Z,47.89
2024-05-09T19:45:36.098Z,47.92
2024-05-09T19:48:06.103Z,47.94
2024-05-09T19:50:41.059Z,47.75
2024-05-09T19:53:13.378Z,47.89
2024-05-09T19:55:42.280Z,47.96
2024-05-09T19:58:10.799Z,48.08
2024-05-09T20:00:41.511Z,48.18
2024-05-09T20:03:12.424Z,48.38
2024-05-09T20:05:47.377Z,48.48
2024-05-09T20:08:16.110Z,48.65
2024-05-09T20:10:44.026Z,48.84
2024-05-09T20:13:11.892Z,49.22
2024-05-09T20:15:39.918Z,49.27
2024-05-09T20:18:08.114Z,49.56
2024-05-09T20:20:40.088Z,49.56
2024-05-09T20:23:11.384Z,49.74
2024-05-09T20:25:40.052Z,50.15
2024-05-09T20:28:08.050Z,50.62
2024-05-09T20:30:36.435Z,50.41
2024-05-09T20:33:07.447Z,50.82
2024-05-09T20:35:36.553Z,50.79
2024-05-09T20:38:04.872Z,50.80
2024-05-09T20:40:37.159Z,50.86
2024-05-09T20:43:10.696Z,51.00
2024-05-09T20:45:39.814Z,51.12
2024-05-09T20:48:09.217Z,50.98
2024-05-09T20:50:40.850Z,50.81
2024-05-09T20:53:12.897Z,51.04
2024-05-09T20:55:45.309Z,50.89
2024-05-09T20:58:14.148Z,50.98
2024-05-09T21:00:44.716Z,50.99
2024-05-09T21:03:16.513Z,51.03
2024-05-09T21:05:46.339Z,51.04
2024-05-09T21:08:14.748Z,51.20
2024-05-09T21:10:42.669Z,51.22
2024-05-09T21:13:11.256Z,51.33
2024-05-09T21:15:39.139Z,51.11
2024-05-09T21:18:08.158Z,51.59
2024-05-09T21:20:37.510Z,51.86
2024-05-09T21:23:05.443Z,51.86
2024-05-09T21:25:33.150Z,52.00
2024-05-09T21:28:01.143Z,51.95
2024-05-09T21:30:38.532Z,52.00
2024-05-09T21:33:12.849Z,52.13
2024-05-09T21:35:43.846Z,52.32
2024-05-09T21:38:14.371Z,52.27
2024-05-09T21:40:43.656Z,52.48
2024-05-09T21:43:11.664Z,52.17
2024-05-09T21:45:39.574Z,52.29
2024-05-09T21:48:08.084Z,52.41
2024-05-09T21:50:40.351Z,52.87
2024-05-09T21:53:11.772Z,53.42
2024-05-09T21:55:39.865Z,53.47
2024-05-09T21:58:07.973Z,53.70
2024-05-09T22:00:39.174Z,53.84
2024-05-09T22:03:08.767Z,54.09
2024-05-09T22:05:39.162Z,54.10
2024-05-09T22:08:07.568Z,54.11
2024-05-09T22:10:36.936Z,54.56
2024-05-09T22:13:06.659Z,54.19
2024-05-09T22:15:37.433Z,54.39
2024-05-09T22:18:08.020Z,54.45
2024-05-09T22:20:38.912Z,54.62
2024-05-09T22:23:08.733Z,54.78
2024-05-09T22:25:38.550Z,54.68
2024-05-09T22:28:06.720Z,54.77
2024-05-09T22:30:38.202Z,54.95
2024-05-09T22:33:09.717Z,55.14
2024-05-09T22:35:40.363Z,55.16
2024-05-09T22:38:08.928Z,55.47
2024-05-09T22:40:45.481Z,55.47
2024-05-09T22:43:19.022Z,55.63
2024-05-09T22:45:47.358Z,55.67
2024-05-09T22:48:15.574Z,55.83
2024-05-09T22:50:43.425Z,56.00
2024-05-09T22:53:11.128Z,56.08
2024-05-09T22:55:38.784Z,56.15
2024-05-09T22:58:06.657Z,56.23
2024-05-09T23:00:34.813Z,56.37
2024-05-09T23:03:03.212Z,56.80
2024-05-09T23:05:32.074Z,56.71
2024-05-09T23:08:02.995Z,56.87
2024-05-09T23:10:36.155Z,56.95
2024-05-09T23:13:07.401Z,57.07
2024-05-09T23:15:39.688Z,57.06
2024-05-09T23:18:07.978Z,57.09
2024-05-09T23:20:38.975Z,57.04
2024-05-09T23:23:09.801Z,57.09
2024-05-09T23:25:38.774Z,57.21
2024-05-09T23:28:07.287Z,57.18
2024-05-09T23:30:38.853Z,57.10
2024-05-09T23:33:13.094Z,57.12
2024-05-09T23:35:43.523Z,57.11
2024-05-09T23:38:12.307Z,56.93
2024-05-09T23:40:41.707Z,56.98
2024-05-09T23:43:12.207Z,56.96
2024-05-09T23:45:41.556Z,56.77
2024-05-09T23:48:10.452Z,56.65
2024-05-09T23:50:40.071Z,56.63
2024-05-09T23:53:09.806Z,56.54
2024-05-09T23:55:38.998Z,56.52
2024-05-09T23:58:07.804Z,56.45
